createdAt,value
2023-12-18T00:01:44.886Z,100.00
2023-12-18T00:04:12.995Z,100.00
2023-12-18T00:06:41.119Z,100.00
2023-12-18T00:09:09.206Z,100.00
2023-12-18T00:11:38.573Z,100.00
2023-12-18T00:14:06.560Z,100.00
2023-12-18T00:16:34.556Z,100.00
2023-12-18T00:19:02.762Z,100.00
2023-12-18T00:21:30.870Z,100.00
2023-12-18T00:23:58.902Z,100.00
2023-12-18T00:26:26.882Z,100.00
2023-12-18T00:28:56.237Z,100.00
2023-12-18T00:31:24.387Z,100.00
2023-12-18T00:33:52.529Z,100.00
2023-12-18T00:36:20.615Z,100.00
2023-12-18T00:38:48.655Z,100.00
2023-12-18T00:41:16.668Z,100.00
2023-12-18T00:43:44.651Z,100.00
2023-12-18T00:46:14.058Z,100.00
2023-12-18T00:48:42.111Z,100.00
2023-12-18T00:51:12.437Z,100.00
2023-12-18T00:53:40.523Z,100.00
2023-12-18T00:56:08.730Z,100.00
2023-12-18T00:58:36.769Z,100.00
2023-12-18T01:01:05.035Z,100.00
2023-12-18T01:03:34.689Z,100.00
2023-12-18T01:06:03.771Z,100.00
2023-12-18T01:08:31.800Z,100.00
2023-12-18T01:10:59.711Z,100.00
2023-12-18T01:13:27.755Z,100.00
2023-12-18T01:15:57.504Z,100.00
2023-12-18T01:18:25.767Z,100.00
2023-12-18T01:20:55.177Z,100.00
2023-12-18T01:23:23.169Z,100.00
2023-12-18T01:25:51.163Z,100.00
2023-12-18T01:28:19.179Z,100.00
2023-12-18T01:30:47.215Z,100.00
2023-12-18T01:33:15.352Z,100.00
2023-12-18T01:35:43.415Z,100.00
2023-12-18T01:38:13.126Z,100.00
2023-12-18T01:40:41.115Z,100.00
2023-12-18T01:43:27.671Z,100.00
2023-12-18T01:46:00.037Z,100.00
2023-12-18T01:48:28.891Z,100.00
2023-12-18T01:50:58.955Z,100.00
2023-12-18T01:53:32.154Z,100.00
2023-12-18T01:56:00.308Z,100.00
2023-12-18T01:58:29.209Z,100.00
2023-12-18T02:00:57.416Z,100.00
2023-12-18T02:03:26.235Z,100.00
2023-12-18T02:05:55.008Z,100.00
2023-12-18T02:08:23.447Z,100.00
2023-12-18T02:10:53.277Z,100.00
2023-12-18T02:13:21.308Z,100.00
2023-12-18T02:15:49.460Z,100.00
2023-12-18T02:18:17.550Z,100.00
2023-12-18T02:20:45.868Z,100.00
2023-12-18T02:23:15.312Z,100.00
2023-12-18T02:25:43.307Z,100.00
2023-12-18T02:28:13.919Z,100.00
2023-12-18T02:30:42.047Z,100.00
2023-12-18T02:33:10.303Z,100.00
2023-12-18T02:35:38.359Z,100.00
2023-12-18T02:38:06.384Z,100.00
2023-12-18T02:40:36.937Z,100.00
2023-12-18T02:43:05.548Z,100.00
2023-12-18T02:45:33.621Z,100.00
2023-12-18T02:48:01.731Z,100.00
2023-12-18T02:50:29.823Z,100.00
2023-12-18T02:52:57.821Z,100.00
2023-12-18T02:55:25.841Z,100.00
2023-12-18T02:57:55.234Z,100.00
2023-12-18T03:00:23.286Z,100.00
2023-12-18T03:02:51.353Z,100.00
2023-12-18T03:05:19.581Z,100.00
2023-12-18T03:07:47.582Z,100.00
2023-12-18T03:10:15.560Z,100.00
2023-12-18T03:12:43.597Z,100.00
2023-12-18T03:15:13.338Z,100.00
2023-12-18T03:17:41.651Z,100.00
2023-12-18T03:20:10.546Z,100.00
2023-12-18T03:22:38.605Z,100.00
2023-12-18T03:25:07.540Z,100.00
2023-12-18T03:27:35.613Z,100.00
2023-12-18T03:30:04.098Z,100.00
2023-12-18T03:32:33.549Z,100.00
2023-12-18T03:35:01.548Z,100.00
2023-12-18T03:37:29.509Z,100.00
2023-12-18T03:39:57.516Z,100.00
2023-12-18T03:42:25.631Z,100.00
2023-12-18T03:44:53.699Z,100.00
2023-12-18T03:47:21.698Z,100.00
2023-12-18T03:49:51.114Z,100.00
2023-12-18T03:52:19.176Z,100.00
2023-12-18T03:54:47.212Z,100.00
2023-12-18T03:57:15.295Z,100.00
2023-12-18T03:59:43.287Z,100.00
2023-12-18T04:02:11.275Z,100.00
2023-12-18T04:04:39.372Z,100.00
2023-12-18T04:07:08.838Z,100.00
2023-12-18T04:09:39.852Z,100.00
2023-12-18T04:12:08.704Z,100.00
2023-12-18T04:14:36.689Z,100.00
2023-12-18T04:17:04.848Z,100.00
2023-12-18T04:19:32.966Z,100.00
2023-12-18T04:22:00.992Z,100.00
2023-12-18T04:24:30.397Z,100.00
2023-12-18T04:26:59.011Z,100.00
2023-12-18T04:29:27.015Z,100.00
2023-12-18T04:31:55.277Z,100.00
2023-12-18T04:34:23.401Z,100.00
2023-12-18T04:36:51.445Z,100.00
2023-12-18T04:39:19.496Z,100.00
2023-12-18T04:41:48.868Z,100.00
2023-12-18T04:44:17.060Z,100.00
2023-12-18T04:46:45.026Z,100.00
2023-12-18T04:49:14.450Z,100.00
2023-12-18T04:51:42.511Z,100.00
2023-12-18T04:54:10.668Z,100.00
2023-12-18T04:56:38.777Z,100.00
2023-12-18T04:59:08.245Z,100.00
2023-12-18T05:01:36.322Z,100.00
2023-12-18T05:04:05.171Z,100.00
2023-12-18T05:06:33.330Z,100.00
2023-12-18T05:09:01.406Z,100.00
2023-12-18T05:11:29.458Z,100.00
2023-12-18T05:13:57.477Z,100.00
2023-12-18T05:16:26.910Z,100.00
2023-12-18T05:18:55.400Z,100.00
2023-12-18T05:21:23.501Z,100.00
2023-12-18T05:23:51.867Z,100.00
2023-12-18T05:26:19.897Z,100.00
2023-12-18T05:28:47.959Z,100.00
2023-12-18T05:31:18.422Z,100.00
2023-12-18T05:33:48.078Z,100.00
2023-12-18T05:36:16.790Z,100.00
2023-12-18T05:38:44.786Z,100.00
2023-12-18T05:41:12.800Z,100.00
2023-12-18T05:43:40.768Z,100.00
2023-12-18T05:46:12.634Z,100.00
2023-12-18T05:48:40.725Z,100.00
2023-12-18T05:51:20.737Z,100.00
2023-12-18T05:53:49.485Z,100.00
2023-12-18T05:56:17.961Z,100.00
2023-12-18T05:58:46.131Z,100.00
2023-12-18T06:01:14.116Z,100.00
2023-12-18T06:03:42.327Z,100.00
2023-12-18T06:06:11.928Z,100.00
2023-12-18T06:08:39.968Z,100.00
2023-12-18T06:11:07.992Z,100.00
2023-12-18T06:13:36.005Z,100.00
2023-12-18T06:16:04.015Z,100.00
2023-12-18T06:18:32.149Z,100.00
2023-12-18T06:21:04.366Z,100.00
2023-12-18T06:23:34.017Z,100.00
2023-12-18T06:26:03.232Z,100.00
2023-12-18T06:28:31.920Z,100.00
2023-12-18T06:31:00.167Z,100.00
2023-12-18T06:33:28.536Z,100.00
2023-12-18T06:35:56.834Z,100.00
2023-12-18T06:38:24.940Z,100.00
2023-12-18T06:40:54.349Z,100.00
2023-12-18T06:43:22.334Z,100.00
2023-12-18T06:45:50.365Z,100.00
2023-12-18T06:48:18.515Z,100.00
2023-12-18T06:51:04.836Z,100.00
2023-12-18T06:53:32.823Z,100.00
2023-12-18T06:56:02.183Z,100.00
2023-12-18T06:58:30.132Z,100.00
2023-12-18T07:00:58.180Z,100.00
2023-12-18T07:03:27.385Z,100.00
2023-12-18T07:05:56.360Z,100.00
2023-12-18T07:08:24.521Z,100.00
2023-12-18T07:10:52.644Z,100.00
2023-12-18T07:13:22.046Z,100.00
2023-12-18T07:15:50.127Z,100.00
2023-12-18T07:18:18.784Z,100.00
2023-12-18T07:20:48.428Z,100.00
2023-12-18T07:23:16.436Z,100.00
2023-12-18T07:25:44.387Z,100.00
2023-12-18T07:28:12.377Z,100.00
2023-12-18T07:30:41.905Z,100.00
2023-12-18T07:33:10.093Z,100.00
2023-12-18T07:35:38.206Z,100.00
2023-12-18T07:38:06.322Z,100.00
2023-12-18T07:40:34.277Z,100.00
2023-12-18T07:43:02.253Z,100.00
2023-12-18T07:45:30.203Z,100.00
2023-12-18T07:47:59.659Z,100.00
2023-12-18T07:50:29.131Z,100.00
2023-12-18T07:53:00.901Z,100.00
2023-12-18T07:55:32.804Z,100.00
2023-12-18T07:58:03.658Z,100.00
2023-12-18T08:00:42.077Z,100.00
2023-12-18T08:03:11.616Z,100.00
2023-12-18T08:05:39.706Z,100.00
2023-12-18T08:08:08.251Z,100.00
2023-12-18T08:10:36.205Z,100.00
2023-12-18T08:13:04.297Z,100.00
2023-12-18T08:15:32.301Z,100.00
2023-12-18T08:18:01.292Z,100.00
2023-12-18T08:20:30.799Z,100.00
2023-12-18T08:22:58.738Z,100.00
2023-12-18T08:25:27.143Z,100.00
2023-12-18T08:27:56.196Z,100.00
2023-12-18T08:30:25.193Z,100.00
2023-12-18T08:32:53.851Z,100.00
2023-12-18T08:35:22.740Z,100.00
2023-12-18T08:37:52.197Z,100.00
2023-12-18T08:40:20.203Z,100.00
2023-12-18T08:42:48.273Z,100.00
2023-12-18T08:45:16.468Z,100.00
2023-12-18T08:47:44.628Z,100.00
2023-12-18T08:50:12.699Z,100.00
2023-12-18T08:52:40.935Z,100.00
2023-12-18T08:55:10.829Z,100.00
2023-12-18T08:57:39.226Z,100.00
2023-12-18T09:00:10.492Z,100.00
2023-12-18T09:02:38.555Z,100.00
2023-12-18T09:05:07.244Z,100.00
2023-12-18T09:07:35.236Z,100.00
2023-12-18T09:10:03.247Z,100.00
2023-12-18T09:12:32.716Z,100.00
2023-12-18T09:15:00.697Z,100.00
2023-12-18T09:17:29.979Z,100.00
2023-12-18T09:19:58.158Z,100.00
2023-12-18T09:22:26.449Z,100.00
2023-12-18T09:24:54.479Z,100.00
2023-12-18T09:27:22.836Z,100.00
2023-12-18T09:29:52.292Z,100.00
2023-12-18T09:32:20.542Z,100.00
2023-12-18T09:34:48.941Z,100.00
2023-12-18T09:37:17.263Z,100.00
2023-12-18T09:39:45.569Z,100.00
2023-12-18T09:42:16.584Z,100.00
2023-12-18T09:44:49.328Z,100.00
2023-12-18T09:47:19.954Z,100.00
2023-12-18T09:49:48.064Z,100.00
2023-12-18T09:52:16.701Z,100.00
2023-12-18T09:54:45.914Z,100.00
2023-12-18T09:57:17.109Z,100.00
2023-12-18T09:59:45.268Z,100.00
2023-12-18T10:02:14.430Z,100.00
2023-12-18T10:04:44.550Z,100.00
2023-12-18T10:07:12.555Z,100.00
2023-12-18T10:09:41.352Z,100.00
2023-12-18T10:12:11.963Z,100.00
2023-12-18T10:14:41.592Z,100.00
2023-12-18T10:17:09.628Z,100.00
2023-12-18T10:19:37.760Z,100.00
2023-12-18T10:22:08.130Z,100.00
2023-12-18T10:24:41.657Z,100.00
2023-12-18T10:27:09.813Z,100.00
2023-12-18T10:29:37.995Z,100.00
2023-12-18T10:32:06.613Z,100.00
2023-12-18T10:34:38.081Z,100.00
2023-12-18T10:37:07.864Z,100.00
2023-12-18T10:39:40.580Z,100.00
2023-12-18T10:42:19.674Z,100.00
2023-12-18T10:44:48.078Z,100.00
2023-12-18T10:47:17.424Z,100.00
2023-12-18T10:49:46.939Z,100.00
2023-12-18T10:52:17.041Z,100.00
2023-12-18T10:54:47.195Z,100.00
2023-12-18T10:57:18.755Z,100.00
2023-12-18T10:59:52.209Z,100.00
2023-12-18T11:02:20.844Z,100.00
2023-12-18T11:04:49.779Z,100.00
2023-12-18T11:07:20.845Z,100.00
2023-12-18T11:09:50.751Z,100.00
2023-12-18T11:12:21.000Z,100.00
2023-12-18T11:15:00.667Z,100.00
2023-12-18T11:17:40.331Z,100.00
2023-12-18T11:20:18.917Z,100.00
2023-12-18T11:22:49.861Z,100.00
2023-12-18T11:25:19.351Z,100.00
2023-12-18T11:27:47.402Z,100.00
2023-12-18T11:30:26.555Z,100.00
2023-12-18T11:32:54.937Z,100.00
2023-12-18T11:35:29.766Z,100.00
2023-12-18T11:38:08.349Z,100.00
2023-12-18T11:40:44.288Z,100.00
2023-12-18T11:43:13.978Z,100.00
2023-12-18T11:45:42.511Z,100.00
2023-12-18T11:48:11.632Z,100.00
2023-12-18T11:50:40.909Z,100.00
2023-12-18T11:53:20.169Z,100.00
2023-12-18T11:55:51.474Z,100.00
2023-12-18T11:58:21.836Z,100.00
2023-12-18T12:00:50.399Z,100.00
2023-12-18T12:03:18.801Z,100.00
2023-12-18T12:05:48.236Z,100.00
2023-12-18T12:08:18.076Z,100.00
2023-12-18T12:10:47.534Z,100.00
2023-12-18T12:13:20.249Z,100.00
2023-12-18T12:15:58.936Z,100.00
2023-12-18T12:18:28.310Z,100.00
2023-12-18T12:20:56.921Z,100.00
2023-12-18T12:23:27.095Z,100.00
2023-12-18T12:25:58.801Z,100.00
2023-12-18T12:28:29.625Z,100.00
2023-12-18T12:30:57.822Z,100.00
2023-12-18T12:33:26.219Z,100.00
2023-12-18T12:35:55.020Z,100.00
2023-12-18T12:38:23.116Z,100.00
2023-12-18T12:40:53.928Z,100.00
2023-12-18T12:43:22.030Z,100.00
2023-12-18T12:45:50.704Z,100.00
2023-12-18T12:48:18.801Z,100.00
2023-12-18T12:50:48.812Z,100.00
2023-12-18T12:53:16.802Z,100.00
2023-12-18T12:55:44.844Z,100.00
2023-12-18T12:58:14.442Z,100.00
2023-12-18T13:00:42.545Z,100.00
2023-12-18T13:03:10.743Z,100.00
2023-12-18T13:05:38.920Z,100.00
2023-12-18T13:08:07.060Z,100.00
2023-12-18T13:10:34.057Z,100.00
2023-12-18T13:13:02.042Z,100.00
2023-12-18T13:15:31.573Z,100.00
2023-12-18T13:17:59.688Z,100.00
2023-12-18T13:20:29.249Z,100.00
2023-12-18T13:22:58.027Z,96.27
2023-12-18T13:25:25.972Z,98.09
2023-12-18T13:27:54.494Z,99.84
2023-12-18T13:30:22.755Z,97.37
2023-12-18T13:32:52.273Z,97.59
2023-12-18T13:35:20.678Z,100.00
2023-12-18T13:37:48.753Z,99.60
2023-12-18T13:40:16.811Z,100.00
2023-12-18T13:42:44.920Z,100.00
2023-12-18T13:45:13.006Z,100.00
2023-12-18T13:47:41.152Z,100.00
2023-12-18T13:50:12.097Z,100.00
2023-12-18T13:52:40.284Z,100.00
2023-12-18T13:55:09.041Z,95.81
2023-12-18T13:57:43.612Z,97.90
2023-12-18T14:00:16.862Z,95.61
2023-12-18T14:02:44.851Z,89.90
2023-12-18T14:05:14.532Z,87.58
2023-12-18T14:07:42.891Z,93.25
2023-12-18T14:10:11.444Z,96.83
2023-12-18T14:12:39.750Z,100.00
2023-12-18T14:15:09.065Z,100.00
2023-12-18T14:17:37.067Z,100.00
2023-12-18T14:20:06.574Z,100.00
2023-12-18T14:22:36.422Z,100.00
2023-12-18T14:25:04.609Z,100.00
2023-12-18T14:27:34.268Z,100.00
2023-12-18T14:30:02.605Z,100.00
2023-12-18T14:32:30.581Z,100.00
2023-12-18T14:34:58.756Z,100.00
2023-12-18T14:37:26.899Z,100.00
2023-12-18T14:39:56.384Z,100.00
2023-12-18T14:42:24.506Z,100.00
2023-12-18T14:44:52.545Z,100.00
2023-12-18T14:47:20.582Z,100.00
2023-12-18T14:49:48.679Z,100.00
2023-12-18T14:52:16.728Z,100.00
2023-12-18T14:54:44.745Z,100.00
2023-12-18T14:57:14.153Z,100.00
2023-12-18T14:59:42.137Z,100.00
2023-12-18T15:02:10.144Z,100.00
2023-12-18T15:04:38.136Z,100.00
2023-12-18T15:07:06.796Z,100.00
2023-12-18T15:09:34.836Z,100.00
2023-12-18T15:12:02.877Z,100.00
2023-12-18T15:14:32.492Z,100.00
2023-12-18T15:17:05.811Z,100.00
2023-12-18T15:19:37.005Z,100.00
2023-12-18T15:22:05.931Z,100.00
2023-12-18T15:24:34.133Z,100.00
2023-12-18T15:27:02.106Z,100.00
2023-12-18T15:29:31.201Z,100.00
2023-12-18T15:32:00.559Z,100.00
2023-12-18T15:34:28.670Z,100.00
2023-12-18T15:36:56.886Z,100.00
2023-12-18T15:39:25.203Z,100.00
2023-12-18T15:41:53.367Z,100.00
2023-12-18T15:44:21.407Z,100.00
2023-12-18T15:46:49.490Z,100.00
2023-12-18T15:49:25.319Z,100.00
2023-12-18T15:51:55.043Z,100.00
2023-12-18T15:54:23.033Z,100.00
2023-12-18T15:56:53.801Z,100.00
2023-12-18T15:59:22.966Z,100.00
2023-12-18T16:01:51.071Z,100.00
2023-12-18T16:04:20.535Z,100.00
2023-12-18T16:06:49.125Z,100.00
2023-12-18T16:09:17.189Z,100.00
2023-12-18T16:11:45.182Z,100.00
2023-12-18T16:14:13.155Z,100.00
2023-12-18T16:16:41.222Z,100.00
2023-12-18T16:19:09.292Z,100.00
2023-12-18T16:21:39.691Z,100.00
2023-12-18T16:24:08.411Z,100.00
2023-12-18T16:26:37.240Z,100.00
2023-12-18T16:29:06.610Z,100.00
2023-12-18T16:31:34.710Z,100.00
2023-12-18T16:34:03.228Z,100.00
2023-12-18T16:36:31.687Z,100.00
2023-12-18T16:39:01.249Z,100.00
2023-12-18T16:41:32.702Z,100.00
2023-12-18T16:44:01.386Z,100.00
2023-12-18T16:46:39.691Z,100.00
2023-12-18T16:49:11.498Z,100.00
2023-12-18T16:51:40.165Z,100.00
2023-12-18T16:54:09.728Z,100.00
2023-12-18T16:56:38.093Z,100.00
2023-12-18T16:59:06.291Z,100.00
2023-12-18T17:01:34.368Z,100.00
2023-12-18T17:04:02.569Z,100.00
2023-12-18T17:06:30.868Z,100.00
2023-12-18T17:08:59.119Z,100.00
2023-12-18T17:11:28.687Z,100.00
2023-12-18T17:13:56.749Z,100.00
2023-12-18T17:16:25.023Z,100.00
2023-12-18T17:18:53.052Z,100.00
2023-12-18T17:21:21.165Z,100.00
2023-12-18T17:23:49.160Z,100.00
2023-12-18T17:26:19.453Z,100.00
2023-12-18T17:28:51.311Z,100.00
2023-12-18T17:31:19.394Z,100.00
2023-12-18T17:33:47.604Z,100.00
2023-12-18T17:36:18.279Z,100.00
2023-12-18T17:38:46.375Z,100.00
2023-12-18T17:41:15.378Z,100.00
2023-12-18T17:43:43.881Z,100.00
2023-12-18T17:46:15.359Z,100.00
2023-12-18T17:48:44.044Z,100.00
2023-12-18T17:51:13.247Z,100.00
2023-12-18T17:53:41.458Z,100.00
2023-12-18T17:56:11.771Z,100.00
2023-12-18T17:58:40.212Z,100.00
2023-12-18T18:01:09.507Z,100.00
2023-12-18T18:03:39.122Z,100.00
2023-12-18T18:06:10.202Z,100.00
2023-12-18T18:08:38.857Z,100.00
2023-12-18T18:11:07.894Z,100.00
2023-12-18T18:13:35.987Z,100.00
2023-12-18T18:16:04.234Z,100.00
2023-12-18T18:18:32.424Z,100.00
2023-12-18T18:21:01.946Z,100.00
2023-12-18T18:23:30.324Z,100.00
2023-12-18T18:25:58.369Z,100.00
2023-12-18T18:28:26.396Z,100.00
2023-12-18T18:30:56.598Z,100.00
2023-12-18T18:33:26.268Z,100.00
2023-12-18T18:35:54.343Z,100.00
2023-12-18T18:38:23.888Z,100.00
2023-12-18T18:40:51.909Z,100.00
2023-12-18T18:43:20.090Z,100.00
2023-12-18T18:45:48.152Z,100.00
2023-12-18T18:48:16.263Z,100.00
2023-12-18T18:50:44.346Z,100.00
2023-12-18T18:53:12.378Z,100.00
2023-12-18T18:55:41.795Z,100.00
2023-12-18T18:58:09.788Z,100.00
2023-12-18T19:00:39.132Z,100.00
2023-12-18T19:03:12.814Z,100.00
2023-12-18T19:05:44.893Z,100.00
2023-12-18T19:08:12.885Z,100.00
2023-12-18T19:10:42.342Z,100.00
2023-12-18T19:13:10.363Z,100.00
2023-12-18T19:15:38.408Z,100.00
2023-12-18T19:18:06.859Z,100.00
2023-12-18T19:20:35.661Z,100.00
2023-12-18T19:23:04.538Z,100.00
2023-12-18T19:25:32.722Z,100.00
2023-12-18T19:28:02.514Z,100.00
2023-12-18T19:30:30.834Z,100.00
2023-12-18T19:32:58.887Z,100.00
2023-12-18T19:35:27.052Z,100.00
2023-12-18T19:37:55.089Z,100.00
2023-12-18T19:40:24.200Z,100.00
2023-12-18T19:42:52.416Z,100.00
2023-12-18T19:45:22.047Z,100.00
2023-12-18T19:50:21.435Z,100.00
2023-12-18T19:52:49.500Z,100.00
2023-12-18T19:55:17.592Z,100.00
2023-12-18T19:57:46.610Z,100.00
2023-12-18T20:00:16.307Z,100.00
2023-12-18T20:02:48.584Z,100.00
2023-12-18T20:05:16.675Z,100.00
2023-12-18T20:07:44.792Z,100.00
2023-12-18T20:10:13.217Z,100.00
2023-12-18T20:12:41.532Z,100.00
2023-12-18T20:15:11.386Z,100.00
2023-12-18T20:17:39.467Z,100.00
2023-12-18T20:20:09.832Z,100.00
2023-12-18T20:22:37.887Z,100.00
2023-12-18T20:25:06.792Z,100.00
2023-12-18T20:27:34.894Z,100.00
2023-12-18T20:30:02.971Z,100.00
2023-12-18T20:32:32.493Z,100.00
2023-12-18T20:35:03.297Z,100.00
2023-12-18T20:37:32.675Z,100.00
2023-12-18T20:40:00.925Z,100.00
2023-12-18T20:42:29.002Z,100.00
2023-12-18T20:44:57.214Z,100.00
2023-12-18T20:47:25.249Z,100.00
2023-12-18T20:49:53.350Z,100.00
2023-12-18T20:52:21.387Z,100.00
2023-12-18T20:54:50.879Z,100.00
2023-12-18T20:57:19.926Z,100.00
2023-12-18T20:59:51.289Z,100.00
2023-12-18T21:02:26.730Z,100.00
2023-12-18T21:04:55.082Z,100.00
2023-12-18T21:07:23.148Z,100.00
2023-12-18T21:09:53.599Z,100.00
2023-12-18T21:12:22.622Z,100.00
2023-12-18T21:14:50.734Z,100.00
2023-12-18T21:17:18.749Z,100.00
2023-12-18T21:19:46.827Z,100.00
2023-12-18T21:22:14.930Z,100.00
2023-12-18T21:24:43.211Z,100.00
2023-12-18T21:27:12.721Z,100.00
2023-12-18T21:29:40.670Z,100.00
2023-12-18T21:32:09.170Z,100.00
2023-12-18T21:34:37.429Z,100.00
2023-12-18T21:37:06.738Z,100.00
2023-12-18T21:39:34.877Z,100.00
2023-12-18T21:42:05.890Z,100.00
2023-12-18T21:44:35.266Z,100.00
2023-12-18T21:47:03.318Z,100.00
2023-12-18T21:49:32.391Z,100.00
2023-12-18T21:52:01.594Z,100.00
2023-12-18T21:54:29.680Z,100.00
2023-12-18T21:56:57.779Z,100.00
2023-12-18T21:59:36.313Z,100.00
2023-12-18T22:02:04.342Z,100.00
2023-12-18T22:04:32.369Z,100.00
2023-12-18T22:07:00.586Z,100.00
2023-12-18T22:09:28.623Z,100.00
2023-12-18T22:11:56.605Z,100.00
2023-12-18T22:14:25.468Z,100.00
2023-12-18T22:16:56.567Z,100.00
2023-12-18T22:19:25.155Z,100.00
2023-12-18T22:21:53.226Z,100.00
2023-12-18T22:24:21.272Z,100.00
2023-12-18T22:26:49.285Z,100.00
2023-12-18T22:29:17.286Z,100.00
2023-12-18T22:31:45.408Z,100.00
2023-12-18T22:34:15.025Z,100.00
2023-12-18T22:36:43.185Z,100.00
2023-12-18T22:39:12.127Z,100.00
2023-12-18T22:41:41.830Z,100.00
2023-12-18T22:44:10.160Z,100.00
2023-12-18T22:46:39.858Z,100.00
2023-12-18T22:49:08.381Z,98.44
2023-12-18T22:51:37.838Z,91.98
2023-12-18T22:54:05.928Z,90.99
2023-12-18T22:56:33.893Z,84.40
2023-12-18T22:59:01.858Z,80.60
2023-12-18T23:01:29.946Z,69.81
2023-12-18T23:03:59.115Z,72.03
2023-12-18T23:06:27.268Z,72.04
2023-12-18T23:08:57.224Z,72.54
2023-12-18T23:11:25.788Z,67.15
2023-12-18T23:13:53.778Z,62.27
2023-12-18T23:16:21.995Z,65.54
2023-12-18T23:18:50.115Z,71.53
2023-12-18T23:21:18.182Z,75.89
2023-12-18T23:23:46.264Z,86.06
2023-12-18T23:26:15.621Z,96.13
2023-12-18T23:28:43.631Z,99.98
2023-12-18T23:31:11.724Z,100.00
2023-12-18T23:33:39.904Z,100.00
2023-12-18T23:36:08.664Z,100.00
2023-12-18T23:38:36.694Z,100.00
2023-12-18T23:41:04.933Z,100.00
2023-12-18T23:43:34.588Z,100.00
2023-12-18T23:46:02.805Z,100.00
2023-12-18T23:48:30.888Z,100.00
2023-12-18T23:50:58.906Z,100.00
2023-12-18T23:53:27.007Z,100.00
2023-12-18T23:55:54.984Z,100.00
2023-12-18T23:58:22.956Z,100.00
